Anthony, New Mexico
Current Conditions -  °F | °C
As of 1:58 PM on Thursday 23 Oct 2014 (Local Time) from KBIF Reporting Station
Clear Clear  
Wind Chill: 76°   Ceiling: Unl
Heat Index: 78°   Visibility: 10mi
Dew Point: 51°   Wind: 5mph
Humidity: 41%   Direction: 120°ESE
Pressure: 30.15"   Gusts: NA
Location:  32°N, 106.6°W
Report Text: KBIF 231958Z 12004KT 10SM CLR 25/11 A3015 RMK AO2A SLP155 T02450105
Loading
Personal Weather Stations






























Interactive Weather Map
Tropical Storm Tracking
New forecast layout! Learn more

10-Day Weather Forecast

Advertisements
Track Severe Weather on mobile